Time;durP1;ratioP1;P1;durP2;ratioP2;P2;SDS_P1;SDS_P2;PMS_P1;PMS_P2;Temp;Humidity;BMP_temperature;BMP_pressure;BME280_temperature;BME280_humidity;BME280_pressure;Samples;Min_cycle;Max_cycle;Signal;HPM_P1;HPM_P2
2022/10/18 00:02:06;;;;;;;4.93;3.83;;;;;;;10.84;62.72;96374.50;5092485;28;20438;-77
2022/10/18 00:04:33;;;;;;;6.33;4.27;;;;;;;10.86;62.97;96370.00;5056994;28;20438;-77
2022/10/18 00:07:00;;;;;;;7.77;4.97;;;;;;;10.80;63.31;96368.59;5092647;28;21008;-76
2022/10/18 00:09:28;;;;;;;5.20;4.43;;;;;;;10.83;62.84;96373.66;5092236;28;20512;-76
2022/10/18 00:11:55;;;;;;;8.60;6.40;;;;;;;10.77;62.90;96362.69;5092571;28;20503;-76
2022/10/18 00:14:22;;;;;;;7.93;6.17;;;;;;;10.72;64.33;96364.78;5092523;28;20851;-76
2022/10/18 00:16:49;;;;;;;11.03;7.00;;;;;;;10.69;64.22;96357.06;5092323;28;20457;-77
2022/10/18 00:19:16;;;;;;;8.43;6.10;;;;;;;10.60;64.54;96345.34;5092165;28;20451;-76
2022/10/18 00:21:43;;;;;;;12.03;6.60;;;;;;;10.54;65.04;96349.19;5092054;28;20484;-76
2022/10/18 00:24:09;;;;;;;10.60;7.13;;;;;;;10.53;65.38;96350.13;5092050;28;20445;-77
2022/10/18 00:26:38;;;;;;;6.63;5.53;;;;;;;10.45;65.87;96344.53;5092152;28;20981;-77
2022/10/18 00:29:06;;;;;;;6.50;5.00;;;;;;;10.41;65.40;96340.41;5091995;28;20455;-76
2022/10/18 00:31:35;;;;;;;10.07;4.87;;;;;;;10.40;65.45;96343.94;5092133;28;20532;-77
2022/10/18 00:34:05;;;;;;;6.53;5.33;;;;;;;10.38;65.37;96335.31;5092216;28;20445;-77
2022/10/18 00:36:34;;;;;;;6.00;5.30;;;;;;;10.38;65.56;96334.47;5092241;28;20493;-77
2022/10/18 00:39:01;;;;;;;7.53;4.67;;;;;;;10.38;66.46;96335.31;5092269;28;20535;-77
2022/10/18 00:41:31;;;;;;;5.07;4.57;;;;;;;10.40;65.88;96333.44;5096447;28;20487;-76
2022/10/18 00:44:01;;;;;;;6.90;5.47;;;;;;;10.42;66.77;96331.59;5096220;28;20447;-77
2022/10/18 00:46:29;;;;;;;5.43;4.93;;;;;;;10.40;66.80;96322.94;5096289;28;20464;-77
2022/10/18 00:48:58;;;;;;;8.90;4.97;;;;;;;10.40;66.10;96328.19;5096216;28;20501;-76
2022/10/18 00:51:29;;;;;;;4.97;4.47;;;;;;;10.41;66.22;96329.91;5095826;28;20448;-77
2022/10/18 00:53:57;;;;;;;5.53;4.90;;;;;;;10.39;66.24;96329.13;5095841;28;20848;-77
2022/10/18 00:56:24;;;;;;;6.30;5.17;;;;;;;10.40;66.05;96328.19;5096070;28;20445;-76
2022/10/18 00:58:51;;;;;;;7.50;6.10;;;;;;;10.36;65.72;96334.56;5095918;28;20441;-77
2022/10/18 01:01:19;;;;;;;9.70;7.10;;;;;;;10.21;65.87;96323.22;5095676;28;20491;-76
2022/10/18 01:03:46;;;;;;;9.17;7.03;;;;;;;9.97;67.43;96323.81;5095861;28;20786;-76
2022/10/18 01:06:13;;;;;;;9.97;8.03;;;;;;;9.78;67.57;96326.66;5095851;28;20470;-76
2022/10/18 01:08:58;;;;;;;11.10;7.17;;;;;;;9.65;68.72;96321.31;5095956;28;20513;-77
2022/10/18 01:11:45;;;;;;;10.33;6.97;;;;;;;9.48;69.24;96316.19;5046514;28;20968;-77
2022/10/18 01:14:22;;;;;;;8.30;6.80;;;;;;;9.44;69.44;96320.78;5095692;28;20447;-76
2022/10/18 01:17:04;;;;;;;9.33;6.67;;;;;;;9.45;69.65;96317.22;5095499;28;20946;-77
2022/10/18 01:20:03;;;;;;;9.23;7.47;;;;;;;9.44;69.86;96314.69;5095430;28;20440;-77
2022/10/18 01:22:36;;;;;;;12.50;7.57;;;;;;;9.36;69.96;96311.69;5012890;28;20517;-77
2022/10/18 01:25:14;;;;;;;10.93;8.50;;;;;;;9.31;69.90;96307.53;5012658;28;20455;-76
2022/10/18 01:27:55;;;;;;;9.87;6.50;;;;;;;9.35;70.00;96302.13;5013114;28;20522;-77
2022/10/18 01:30:37;;;;;;;12.23;6.30;;;;;;;9.37;70.10;96308.13;5012987;28;20450;-77
2022/10/18 01:33:10;;;;;;;9.10;6.13;;;;;;;9.37;70.49;96301.09;5012954;28;20447;-77
2022/10/18 01:35:43;;;;;;;9.30;7.10;;;;;;;9.34;70.01;96313.53;4963834;28;20990;-76
2022/10/18 01:38:16;;;;;;;17.10;7.57;;;;;;;9.20;70.30;96303.81;5012833;28;20489;-77
2022/10/18 01:40:45;;;;;;;13.87;8.20;;;;;;;9.07;70.62;96300.22;5012621;28;20541;-77
2022/10/18 01:43:15;;;;;;;10.60;7.53;;;;;;;9.02;70.90;96308.34;5012884;28;20541;-77
2022/10/18 01:45:43;;;;;;;11.50;8.00;;;;;;;8.97;71.19;96305.16;5012858;28;20872;-77
2022/10/18 01:48:11;;;;;;;12.10;7.87;;;;;;;8.89;71.47;96296.84;5012686;28;20451;-77
2022/10/18 01:50:38;;;;;;;11.10;8.10;;;;;;;8.79;72.14;96304.38;5012218;28;20439;-76
2022/10/18 01:53:05;;;;;;;10.27;7.57;;;;;;;8.72;72.12;96297.81;5012608;28;20988;-77
2022/10/18 01:55:40;;;;;;;15.97;9.13;;;;;;;8.67;72.13;96302.41;5012571;28;20972;-77
2022/10/18 01:58:18;;;;;;;11.87;9.73;;;;;;;8.64;72.31;96306.06;5013425;28;20482;-77
2022/10/18 02:00:50;;;;;;;15.67;9.53;;;;;;;8.64;72.58;96311.28;5094487;28;20975;-77
2022/10/18 02:03:22;;;;;;;14.27;9.90;;;;;;;8.68;72.91;96304.97;5094583;28;20450;-76
2022/10/18 02:05:56;;;;;;;11.87;8.33;;;;;;;8.68;72.30;96304.97;5094962;28;20452;-76
2022/10/18 02:08:29;;;;;;;14.67;9.97;;;;;;;8.67;72.60;96302.41;5094363;28;20946;-77
2022/10/18 02:11:01;;;;;;;12.17;9.17;;;;;;;8.68;72.57;96294.50;5094519;28;20451;-76
2022/10/18 02:13:33;;;;;;;12.00;8.60;;;;;;;8.70;72.33;96286.56;5058931;28;20517;-76
2022/10/18 02:16:05;;;;;;;8.03;6.50;;;;;;;8.70;71.91;96281.34;5043755;28;20930;-76
2022/10/18 02:18:37;;;;;;;9.93;7.40;;;;;;;8.71;72.65;96283.03;5094272;28;20454;-77
2022/10/18 02:21:05;;;;;;;12.53;7.70;;;;;;;8.71;72.23;96282.19;5094206;28;20846;-77
2022/10/18 02:23:33;;;;;;;8.73;7.50;;;;;;;8.69;72.51;96277.88;5094273;28;20451;-77
2022/10/18 02:26:01;;;;;;;11.37;7.53;;;;;;;8.63;72.33;96280.81;5058449;28;20428;-76
2022/10/18 02:28:28;;;;;;;9.60;7.00;;;;;;;8.59;72.40;96273.22;5058884;28;20443;-77
2022/10/18 02:31:02;;;;;;;9.70;7.23;;;;;;;8.54;72.19;96275.25;5094147;28;20497;-77
2022/10/18 02:33:34;;;;;;;11.53;7.27;;;;;;;8.55;72.46;96276.94;5094144;28;20458;-76
2022/10/18 02:36:06;;;;;;;8.17;6.87;;;;;;;8.42;72.60;96286.41;5094676;28;20495;-76
2022/10/18 02:38:33;;;;;;;9.83;6.67;;;;;;;8.26;72.82;96286.31;5093842;28;20461;-77
2022/10/18 02:41:00;;;;;;;10.47;8.20;;;;;;;8.13;73.52;96291.38;5093804;28;20497;-77
2022/10/18 02:43:27;;;;;;;17.48;9.30;;;;;;;8.19;73.91;96291.03;5092904;28;20490;-77
2022/10/18 02:45:54;;;;;;;11.43;8.93;;;;;;;8.24;73.40;96296.03;5042057;28;20202;-76
2022/10/18 02:48:21;;;;;;;9.83;7.30;;;;;;;8.23;73.73;96292.56;5093907;28;20952;-77
2022/10/18 02:50:49;;;;;;;9.33;7.20;;;;;;;8.30;74.17;96293.06;5093611;28;20524;-76
2022/10/18 02:53:16;;;;;;;9.27;7.13;;;;;;;8.33;73.85;96293.78;5041666;28;20483;-77
2022/10/18 02:55:42;;;;;;;8.77;7.40;;;;;;;8.37;73.45;96294.47;5058458;28;20451;-77
2022/10/18 02:58:09;;;;;;;10.93;7.40;;;;;;;8.41;73.35;96295.16;5093735;28;21069;-77
2022/10/18 03:00:36;;;;;;;12.33;8.57;;;;;;;8.43;73.13;96304.63;5093356;28;20926;-77
2022/10/18 03:03:03;;;;;;;14.40;8.67;;;;;;;8.46;73.22;96299.22;5092649;28;20973;-77
2022/10/18 03:05:29;;;;;;;10.50;8.17;;;;;;;8.50;72.98;96292.03;5093349;28;20910;-77
2022/10/18 03:07:58;;;;;;;10.70;8.10;;;;;;;8.50;72.53;96300.75;5093388;28;20930;-77
2022/10/18 03:10:24;;;;;;;13.90;8.37;;;;;;;8.50;72.77;96299.91;5093390;28;20449;-76
2022/10/18 03:12:51;;;;;;;17.10;8.70;;;;;;;8.43;72.35;96294.16;5093409;28;20842;-76
2022/10/18 03:15:18;;;;;;;13.50;8.27;;;;;;;8.32;72.12;96288.59;5094246;28;20812;-76
2022/10/18 03:17:45;;;;;;;9.83;8.47;;;;;;;8.32;72.96;96293.84;5093937;28;20443;-76
2022/10/18 03:20:12;;;;;;;10.67;7.97;;;;;;;8.30;73.04;96285.22;5058579;28;20501;-76
2022/10/18 03:22:39;;;;;;;10.60;7.50;;;;;;;8.30;73.25;96286.06;5093741;28;20491;-77
2022/10/18 03:25:08;;;;;;;10.23;7.90;;;;;;;8.22;72.70;96295.25;5094323;28;20503;-77
2022/10/18 03:27:34;;;;;;;17.87;8.47;;;;;;;8.12;72.80;96281.00;5093903;28;20450;-76
2022/10/18 03:30:01;;;;;;;9.13;8.10;;;;;;;8.00;73.92;96280.69;5057951;28;20435;-76
2022/10/18 03:32:28;;;;;;;9.07;7.77;;;;;;;7.98;73.29;96282.53;5094070;28;20496;-76
2022/10/18 03:34:55;;;;;;;13.73;10.97;;;;;;;7.94;73.31;96288.00;5093304;28;20456;-76
2022/10/18 03:37:21;;;;;;;13.30;8.50;;;;;;;7.86;73.93;96287.59;5093283;28;20504;-77
2022/10/18 03:39:48;;;;;;;14.67;9.33;;;;;;;7.82;74.19;96294.75;5093502;28;20503;-76
2022/10/18 03:42:16;;;;;;;16.53;9.30;;;;;;;7.81;74.47;96292.22;5093632;28;21022;-77
2022/10/18 03:44:43;;;;;;;14.30;8.83;;;;;;;7.84;74.92;96295.50;5093550;28;20453;-76
2022/10/18 03:47:10;;;;;;;12.93;9.50;;;;;;;7.89;74.64;96298.72;5093792;28;20445;-76
2022/10/18 03:49:37;;;;;;;13.27;8.93;;;;;;;7.86;74.28;96296.25;5091897;28;20524;-76
2022/10/18 03:52:04;;;;;;;10.50;9.40;;;;;;;7.96;74.36;96302.69;5093137;28;20487;-77
2022/10/18 03:54:31;;;;;;;13.83;9.30;;;;;;;7.97;73.86;96301.78;5093282;28;20456;-76
2022/10/18 03:56:57;;;;;;;13.10;9.30;;;;;;;8.02;74.22;96302.38;5093468;28;20949;-77
2022/10/18 03:59:26;;;;;;;12.40;9.90;;;;;;;8.05;74.28;96307.44;5057201;28;20446;-76
2022/10/18 04:01:52;;;;;;;16.17;10.70;;;;;;;8.04;73.92;96308.34;5092720;28;20984;-76
2022/10/18 04:04:19;;;;;;;14.83;9.57;;;;;;;8.08;74.39;96315.13;5093046;28;20484;-76
2022/10/18 04:06:46;;;;;;;32.43;11.43;;;;;;;8.13;74.29;96311.44;5092916;28;20456;-76
2022/10/18 04:09:13;;;;;;;15.27;10.90;;;;;;;8.14;74.09;96307.91;5093145;28;20451;-76
2022/10/18 04:11:40;;;;;;;13.30;10.53;;;;;;;8.17;74.25;96310.34;5092779;28;20849;-77
2022/10/18 04:14:07;;;;;;;15.40;11.23;;;;;;;8.20;74.38;96307.56;5092913;28;20452;-77
2022/10/18 04:16:35;;;;;;;16.77;11.33;;;;;;;8.21;74.08;96306.66;5092941;28;20835;-76
2022/10/18 04:19:02;;;;;;;15.53;10.67;;;;;;;8.24;74.22;96309.94;5106078;28;20452;-77
2022/10/18 04:21:28;;;;;;;13.20;10.70;;;;;;;8.21;73.66;96309.25;5113035;28;20481;-77
2022/10/18 04:23:55;;;;;;;18.90;11.00;;;;;;;8.19;73.75;96306.72;5114057;28;20446;-76
2022/10/18 04:26:22;;;;;;;17.30;10.90;;;;;;;8.19;73.13;96305.88;5113481;28;20464;-77
2022/10/18 04:28:49;;;;;;;16.70;11.10;;;;;;;8.15;73.25;96301.75;5113808;28;20530;-77
2022/10/18 04:31:16;;;;;;;20.97;11.60;;;;;;;8.10;73.31;96295.91;5113539;28;20457;-77
2022/10/18 04:33:45;;;;;;;13.27;10.53;;;;;;;8.11;73.28;96300.22;5113765;28;20794;-77
2022/10/18 04:36:11;;;;;;;22.17;11.93;;;;;;;8.13;73.30;96304.44;5114082;28;20551;-77
2022/10/18 04:38:38;;;;;;;22.13;13.20;;;;;;;8.15;73.65;96301.75;5113529;28;20490;-81
2022/10/18 04:41:05;;;;;;;18.80;11.27;;;;;;;8.15;74.15;96299.97;5113781;28;20443;-79
2022/10/18 04:43:32;;;;;;;18.17;12.23;;;;;;;8.13;73.02;96293.13;5112941;28;20918;-77
2022/10/18 04:45:59;;;;;;;35.60;14.60;;;;;;;8.17;73.83;96290.28;5111611;28;20431;-77
2022/10/18 04:48:26;;;;;;;20.73;14.03;;;;;;;8.18;73.01;96288.50;5108909;28;20599;-77
2022/10/18 04:50:54;;;;;;;25.23;13.93;;;;;;;8.08;73.21;96286.34;5112586;28;20880;-78
2022/10/18 04:53:21;;;;;;;20.50;14.10;;;;;;;7.95;72.67;96290.56;5112973;28;20848;-77
2022/10/18 04:55:49;;;;;;;29.00;14.43;;;;;;;7.89;73.63;96292.66;5103892;28;20974;-77
2022/10/18 04:58:16;;;;;;;20.40;14.60;;;;;;;7.88;74.01;96291.81;5092062;28;20443;-76
2022/10/18 05:00:43;;;;;;;29.20;14.87;;;;;;;7.84;73.65;96286.81;5092378;28;20443;-76
2022/10/18 05:03:12;;;;;;;26.40;14.77;;;;;;;7.79;74.19;96284.41;5091304;28;20950;-76
2022/10/18 05:05:39;;;;;;;23.33;16.63;;;;;;;7.82;74.56;96283.44;5091994;28;20446;-77
2022/10/18 05:08:08;;;;;;;39.80;16.10;;;;;;;8.06;75.08;96279.53;5092119;28;20454;-78
2022/10/18 05:10:35;;;;;;;25.83;15.83;;;;;;;8.77;73.99;96274.00;5092454;28;20439;-78
2022/10/18 05:13:01;;;;;;;37.77;13.63;;;;;;;9.69;69.60;96275.66;5092591;28;20470;-78
2022/10/18 05:15:28;;;;;;;33.20;18.43;;;;;;;10.78;66.19;96275.94;5092238;28;20440;-78
2022/10/18 05:17:55;;;;;;;28.07;15.40;;;;;;;11.83;62.31;96275.25;5107888;28;20466;-79
2022/10/18 05:20:22;;;;;;;24.93;14.90;;;;;;;12.93;57.80;96263.97;5112795;28;20450;-78
2022/10/18 05:22:48;;;;;;;31.10;16.60;;;;;;;13.62;54.45;96270.31;5104226;28;20483;-79
2022/10/18 05:25:17;;;;;;;31.70;18.13;;;;;;;13.94;53.55;96283.72;5107085;28;20570;-79
2022/10/18 05:27:43;;;;;;;29.90;16.03;;;;;;;14.13;51.98;96271.75;5116594;28;20446;-79
2022/10/18 05:30:11;;;;;;;26.93;15.80;;;;;;;14.64;51.48;96277.44;5116402;28;20839;-78
2022/10/18 05:32:37;;;;;;;27.10;16.13;;;;;;;15.05;50.20;96271.53;5115502;28;20929;-79
2022/10/18 05:35:05;;;;;;;26.43;16.87;;;;;;;15.39;48.96;96269.63;5112489;28;20774;-78
2022/10/18 05:37:31;;;;;;;25.63;18.07;;;;;;;15.41;48.75;96275.63;5066930;28;20466;-79
2022/10/18 05:39:58;;;;;;;27.37;17.10;;;;;;;15.49;48.08;96277.63;5098211;28;20446;-79
2022/10/18 05:42:26;;;;;;;22.00;15.87;;;;;;;15.61;48.26;96274.03;5116414;28;20494;-78
2022/10/18 05:44:53;;;;;;;23.70;16.33;;;;;;;15.73;48.25;96273.00;5116698;28;20448;-80
2022/10/18 05:47:20;;;;;;;24.63;15.40;;;;;;;15.90;51.95;96278.69;5116491;28;20926;-79
2022/10/18 05:49:47;;;;;;;23.07;15.70;;;;;;;16.14;47.27;96286.38;5116029;28;20956;-78
2022/10/18 05:52:14;;;;;;;16.73;14.87;;;;;;;16.25;46.72;96273.06;5114658;28;21031;-79
2022/10/18 05:54:41;;;;;;;21.13;14.77;;;;;;;16.54;46.36;96278.53;5110586;28;20447;-79
2022/10/18 05:57:08;;;;;;;17.93;14.73;;;;;;;16.71;45.61;96280.56;5098758;28;20461;-79
2022/10/18 05:59:36;;;;;;;23.00;14.43;;;;;;;16.75;45.96;96284.63;5111999;28;20460;-79
2022/10/18 06:02:02;;;;;;;26.87;13.43;;;;;;;16.52;45.27;96278.66;5095558;28;20989;-79
2022/10/18 06:04:29;;;;;;;19.37;13.60;;;;;;;16.37;45.54;96278.16;5071805;28;20438;-78
2022/10/18 06:06:56;;;;;;;14.93;12.53;;;;;;;16.28;46.68;96284.25;5101837;28;20444;-79
2022/10/18 06:09:23;;;;;;;26.37;15.50;;;;;;;16.35;46.71;96274.78;5042862;28;20451;-78
2022/10/18 06:11:50;;;;;;;17.67;12.47;;;;;;;16.31;46.64;96283.13;5094673;28;20440;-79
2022/10/18 06:14:16;;;;;;;15.37;11.10;;;;;;;16.27;47.06;96287.03;5094666;28;20446;-79
2022/10/18 06:16:44;;;;;;;16.30;12.00;;;;;;;16.15;46.88;96288.03;5094965;28;20817;-78
2022/10/18 06:19:11;;;;;;;13.13;11.33;;;;;;;16.06;46.96;96293.16;5094899;28;20432;-79
2022/10/18 06:21:38;;;;;;;17.70;10.43;;;;;;;15.06;48.63;96288.22;5094564;28;20443;-78
2022/10/18 06:24:06;;;;;;;16.30;10.80;;;;;;;15.23;49.41;96292.97;5042618;28;20455;-79
2022/10/18 06:26:32;;;;;;;14.30;10.83;;;;;;;15.36;49.93;96288.41;5094647;28;20444;-78
2022/10/18 06:28:59;;;;;;;17.40;10.90;;;;;;;15.18;50.44;96281.94;5094756;28;20508;-78
2022/10/18 06:31:26;;;;;;;16.20;11.40;;;;;;;15.12;51.31;96285.09;5094775;28;20450;-79
2022/10/18 06:33:56;;;;;;;21.33;11.43;;;;;;;15.22;51.03;96277.25;5094521;28;20447;-78
2022/10/18 06:36:22;;;;;;;15.80;10.33;;;;;;;15.38;50.84;96264.47;5094673;28;20466;-79
2022/10/18 06:38:50;;;;;;;30.10;12.30;;;;;;;15.70;50.35;96273.25;5094447;28;20502;-79
2022/10/18 06:41:18;;;;;;;12.30;10.73;;;;;;;15.91;50.79;96272.44;5094221;28;20455;-79
2022/10/18 06:43:48;;;;;;;13.30;9.23;;;;;;;16.00;48.55;96267.22;5094126;28;20483;-78
2022/10/18 06:46:15;;;;;;;16.97;10.13;;;;;;;15.70;49.09;96270.63;5094518;28;20451;-79
2022/10/18 06:48:42;;;;;;;15.80;10.73;;;;;;;15.62;49.73;96264.28;5094147;28;20935;-79
2022/10/18 06:51:10;;;;;;;18.93;10.17;;;;;;;15.70;49.95;96262.69;5093947;28;20436;-79
2022/10/18 06:53:39;;;;;;;17.77;10.23;;;;;;;15.77;49.41;96269.13;5094572;28;20479;-79
2022/10/18 06:56:07;;;;;;;14.57;8.23;;;;;;;15.77;50.02;96261.19;5093904;28;20444;-79
2022/10/18 06:58:35;;;;;;;21.20;9.50;;;;;;;15.81;49.95;96264.41;5094084;28;20444;-78
2022/10/18 07:01:06;;;;;;;12.93;9.33;;;;;;;15.85;50.58;96263.19;5093926;28;20451;-79
2022/10/18 07:03:34;;;;;;;15.23;10.07;;;;;;;15.47;51.14;96267.19;5058431;28;20489;-79
2022/10/18 07:06:01;;;;;;;12.80;10.20;;;;;;;15.23;51.72;96260.41;5093943;28;20529;-79
2022/10/18 07:08:30;;;;;;;11.40;9.40;;;;;;;15.01;53.00;96262.13;5093763;28;20448;-79
2022/10/18 07:10:56;;;;;;;13.70;8.93;;;;;;;14.90;53.31;96256.06;5093374;28;20935;-79
2022/10/18 07:13:24;;;;;;;12.40;8.47;;;;;;;14.29;54.38;96263.50;5093573;28;20443;-79
2022/10/18 07:16:04;;;;;;;10.33;7.70;;;;;;;14.39;55.54;96261.81;5093459;28;20441;-79
2022/10/18 07:18:32;;;;;;;8.47;7.57;;;;;;;14.46;55.80;96263.06;5093367;28;20448;-78
2022/10/18 07:21:01;;;;;;;8.33;7.53;;;;;;;14.38;54.78;96263.59;5093284;28;20437;-79
2022/10/18 07:23:31;;;;;;;12.00;8.70;;;;;;;14.54;55.06;96250.94;5093546;28;20486;-78
2022/10/18 07:25:58;;;;;;;12.20;8.00;;;;;;;14.55;54.49;96262.34;5093683;28;20440;-79
2022/10/18 07:28:25;;;;;;;11.33;8.87;;;;;;;14.49;54.78;96260.19;5093325;28;20459;-78
2022/10/18 07:30:52;;;;;;;11.77;9.37;;;;;;;14.66;55.09;96254.41;5093377;28;20440;-79
2022/10/18 07:33:19;;;;;;;13.07;10.00;;;;;;;14.67;54.76;96252.59;5093167;28;20440;-79
2022/10/18 07:35:46;;;;;;;16.47;10.70;;;;;;;14.72;54.66;96250.41;5093536;28;20487;-78
2022/10/18 07:38:13;;;;;;;15.63;10.50;;;;;;;14.35;54.85;96252.44;5041049;28;20452;-80
2022/10/18 07:40:41;;;;;;;13.63;11.20;;;;;;;14.62;55.54;96250.31;5093094;28;20501;-78
2022/10/18 07:43:08;;;;;;;17.00;10.83;;;;;;;14.67;55.31;96255.22;5040825;28;20488;-78
2022/10/18 07:45:34;;;;;;;20.10;11.30;;;;;;;14.88;54.95;96243.78;5040889;28;20434;-79
2022/10/18 07:48:01;;;;;;;26.00;11.83;;;;;;;15.07;55.49;96232.59;5092755;28;20493;-78
2022/10/18 07:50:28;;;;;;;19.70;12.60;;;;;;;15.29;55.23;96229.00;5092953;28;20593;-78
2022/10/18 07:52:55;;;;;;;28.53;12.80;;;;;;;15.39;54.14;96227.31;5092968;28;20842;-79
2022/10/18 07:55:21;;;;;;;25.47;12.03;;;;;;;15.52;54.05;96226.28;5092713;28;20943;-78
2022/10/18 07:57:50;;;;;;;20.73;11.00;;;;;;;15.35;54.01;96228.53;5092761;28;20908;-78
2022/10/18 08:00:16;;;;;;;16.63;9.17;;;;;;;15.19;54.08;96226.28;5057134;28;20442;-79
2022/10/18 08:02:43;;;;;;;15.37;10.40;;;;;;;15.31;53.97;96224.44;5092509;28;20958;-79
2022/10/18 08:05:10;;;;;;;18.30;12.40;;;;;;;15.32;54.93;96222.63;5092655;28;20444;-79
2022/10/18 08:07:37;;;;;;;21.63;10.03;;;;;;;15.25;54.91;96213.53;5092986;28;20440;-79
2022/10/18 08:10:04;;;;;;;26.93;11.30;;;;;;;15.07;56.25;96215.88;5093012;28;20850;-79
2022/10/18 08:12:31;;;;;;;26.03;12.13;;;;;;;15.11;56.00;96212.03;5092372;28;20815;-79
2022/10/18 08:14:59;;;;;;;22.50;11.07;;;;;;;15.13;56.19;96207.44;5092891;28;20451;-79
2022/10/18 08:17:26;;;;;;;22.57;13.40;;;;;;;15.19;57.04;96212.22;5092448;28;20451;-78
2022/10/18 08:19:53;;;;;;;32.23;13.37;;;;;;;15.26;56.24;96200.19;5092431;28;20444;-78
2022/10/18 08:22:21;;;;;;;24.20;12.50;;;;;;;15.26;56.14;96197.53;5092465;28;20471;-79
2022/10/18 08:24:48;;;;;;;17.63;12.30;;;;;;;15.29;56.50;96199.06;5092405;28;20770;-79
2022/10/18 08:27:15;;;;;;;23.00;12.60;;;;;;;15.41;55.77;96201.56;5092319;28;20792;-78
2022/10/18 08:29:41;;;;;;;18.03;11.47;;;;;;;15.56;56.09;96190.66;5092587;28;20505;-79
2022/10/18 08:32:10;;;;;;;16.40;9.50;;;;;;;15.77;55.42;96189.72;5092498;28;20439;-79
2022/10/18 08:34:36;;;;;;;17.97;11.33;;;;;;;15.93;54.47;96183.97;5092188;28;20797;-79
2022/10/18 08:37:03;;;;;;;21.77;11.33;;;;;;;16.14;53.06;96183.09;5092319;28;20449;-79
2022/10/18 08:39:30;;;;;;;23.07;11.47;;;;;;;16.22;53.25;96178.81;5092051;28;20453;-79
2022/10/18 08:42:20;;;;;;;17.93;9.80;;;;;;;16.29;52.50;96179.13;5092345;28;20443;-79
2022/10/18 08:44:49;;;;;;;17.60;8.60;;;;;;;16.44;53.07;96167.16;4977537;28;20445;-79
2022/10/18 08:47:20;;;;;;;14.83;8.53;;;;;;;16.63;52.12;96156.63;5010100;28;20447;-79
2022/10/18 08:49:50;;;;;;;23.73;9.50;;;;;;;16.86;52.18;96156.44;5010192;28;20450;-79
2022/10/18 08:52:24;;;;;;;14.03;7.90;;;;;;;16.97;56.29;96159.78;5009913;28;20509;-79
2022/10/18 08:54:58;;;;;;;13.33;7.70;;;;;;;17.13;51.09;96153.13;5010080;28;20447;-79
2022/10/18 08:57:25;;;;;;;11.97;7.27;;;;;;;17.29;49.76;96150.72;5010262;28;20447;-79
2022/10/18 08:59:52;;;;;;;12.10;6.63;;;;;;;16.95;49.58;96139.69;5010159;28;20462;-79
2022/10/18 09:02:36;;;;;;;7.60;6.90;;;;;;;17.18;49.76;96143.75;5013135;28;20447;-79
2022/10/18 09:05:14;;;;;;;11.80;7.00;;;;;;;16.95;50.13;96137.03;5013813;28;20455;-79
2022/10/18 09:07:56;;;;;;;7.23;6.30;;;;;;;17.15;48.17;96140.56;5014259;28;20455;-80
2022/10/18 09:10:33;;;;;;;8.70;6.50;;;;;;;17.01;47.88;96133.81;5014779;28;20454;-78
2022/10/18 09:13:26;;;;;;;15.33;6.80;;;;;;;17.37;49.61;96132.31;5014954;28;20566;-83
2022/10/18 09:15:57;;;;;;;8.23;6.67;;;;;;;17.32;48.33;96131.88;5014800;28;21040;-80
2022/10/18 09:18:51;;;;;;;10.90;6.20;;;;;;;17.61;48.03;96137.13;5014544;28;20826;-78
2022/10/18 09:21:21;;;;;;;9.23;5.93;;;;;;;17.75;48.42;96130.59;5028248;28;20498;-78
2022/10/18 09:23:52;;;;;;;9.30;6.10;;;;;;;17.83;47.39;96133.34;5076112;28;20488;-80
2022/10/18 09:26:21;;;;;;;17.90;7.40;;;;;;;17.93;48.49;96128.88;5076209;28;20453;-82
2022/10/18 09:29:04;;;;;;;9.63;6.20;;;;;;;17.93;47.63;96127.06;5076250;28;20493;-82
2022/10/18 09:31:40;;;;;;;11.43;6.40;;;;;;;18.17;48.09;96117.72;5076255;28;20451;-81
2022/10/18 09:34:14;;;;;;;7.13;5.57;;;;;;;18.32;47.85;96126.06;5075857;28;20961;-77
2022/10/18 09:36:41;;;;;;;7.50;5.23;;;;;;;17.94;44.31;96115.44;5057352;28;20973;-78
2022/10/18 09:39:13;;;;;;;10.23;8.07;;;;;;;18.06;45.36;96112.59;5076545;28;20829;-77
2022/10/18 09:41:43;;;;;;;24.93;17.00;;;;;;;18.16;45.35;96113.38;5075852;28;20506;-81
2022/10/18 09:44:15;;;;;;;9.97;6.43;;;;;;;18.30;45.31;96107.59;5075639;28;20891;-77
2022/10/18 09:46:47;;;;;;;5.53;5.03;;;;;;;18.37;44.24;96103.34;5075998;28;20441;-80
2022/10/18 09:49:20;;;;;;;6.50;5.03;;;;;;;18.33;43.83;96101.97;5075783;28;20445;-78
2022/10/18 09:51:49;;;;;;;6.67;4.83;;;;;;;18.39;44.15;96095.22;5078869;28;20436;-79
2022/10/18 09:54:22;;;;;;;10.70;4.90;;;;;;;18.39;43.82;96095.22;5095996;28;20458;-78
2022/10/18 09:56:52;;;;;;;7.67;4.80;;;;;;;18.42;43.73;96089.63;5096312;28;20475;-78
2022/10/18 09:59:31;;;;;;;5.50;4.50;;;;;;;18.53;41.67;96079.63;5095873;28;20452;-79
2022/10/18 10:01:58;;;;;;;5.70;5.03;;;;;;;18.49;41.15;96080.06;5095515;28;20447;-77
2022/10/18 10:04:26;;;;;;;5.13;4.40;;;;;;;18.55;41.25;96074.16;5095677;28;20510;-77
2022/10/18 10:06:55;;;;;;;6.57;3.50;;;;;;;18.69;38.91;96073.66;5094852;28;20988;-77
2022/10/18 10:09:28;;;;;;;10.33;4.40;;;;;;;18.78;38.71;96061.28;5095285;28;20443;-76
2022/10/18 10:11:55;;;;;;;6.60;4.53;;;;;;;18.69;39.19;96059.53;5094905;28;20485;-77
2022/10/18 10:14:25;;;;;;;5.43;4.17;;;;;;;18.64;39.03;96057.34;5095527;28;20444;-77
2022/10/18 10:16:53;;;;;;;4.40;4.00;;;;;;;18.63;38.87;96057.47;5095337;28;20480;-77
2022/10/18 10:19:26;;;;;;;3.60;3.30;;;;;;;18.78;37.34;96054.13;5095381;28;21152;-77
2022/10/18 10:22:00;;;;;;;7.20;3.90;;;;;;;18.83;36.25;96043.91;5114711;28;20458;-77
2022/10/18 10:24:34;;;;;;;5.80;4.27;;;;;;;18.64;37.88;96036.06;5105832;28;20482;-77
2022/10/18 10:27:10;;;;;;;6.53;4.40;;;;;;;18.83;39.13;96035.91;5095196;28;21265;-77
2022/10/18 10:29:59;;;;;;;4.17;3.77;;;;;;;18.91;36.68;96026.34;5095056;28;20450;-77
2022/10/18 10:32:29;;;;;;;5.20;3.90;;;;;;;19.06;38.18;96025.63;5043644;28;20832;-77
2022/10/18 10:34:56;;;;;;;4.57;4.13;;;;;;;19.23;36.87;96012.44;5094624;28;20455;-78
2022/10/18 10:37:37;;;;;;;6.37;3.90;;;;;;;19.31;35.62;96004.50;5094786;28;21003;-78
2022/10/18 10:40:07;;;;;;;5.53;4.00;;;;;;;19.23;35.88;96004.47;5102284;28;20440;-78
2022/10/18 10:42:36;;;;;;;4.33;3.50;;;;;;;19.19;35.01;96003.94;5104681;28;20454;-78
2022/10/18 10:45:03;;;;;;;3.77;3.47;;;;;;;19.24;36.34;95987.50;5053987;28;20487;-78
2022/10/18 10:47:33;;;;;;;13.13;4.37;;;;;;;19.33;35.52;95982.06;5115019;28;20447;-77
2022/10/18 10:50:09;;;;;;;8.77;4.37;;;;;;;19.44;35.65;95980.97;5115199;28;20443;-78
2022/10/18 10:52:39;;;;;;;4.53;4.13;;;;;;;19.53;35.27;95982.72;5115004;28;20478;-79
2022/10/18 10:55:18;;;;;;;4.37;3.80;;;;;;;19.47;34.20;95975.34;5114807;28;20914;-80
2022/10/18 10:57:47;;;;;;;5.27;3.03;;;;;;;19.43;33.19;95968.66;5115321;28;20504;-79
2022/10/18 11:00:35;;;;;;;7.60;3.30;;;;;;;19.52;32.89;95962.38;5114910;28;20446;-80
2022/10/18 11:03:06;;;;;;;7.73;3.57;;;;;;;19.62;33.93;95964.94;5114980;28;20504;-79
2022/10/18 11:05:42;;;;;;;5.33;3.50;;;;;;;19.63;33.42;95959.47;5115081;28;20461;-79
2022/10/18 11:08:12;;;;;;;4.20;3.53;;;;;;;19.69;32.41;95953.53;5114754;28;20529;-79
2022/10/18 11:10:48;;;;;;;2.77;2.57;;;;;;;19.69;33.20;95940.19;5114684;28;20446;-79
2022/10/18 11:13:26;;;;;;;3.63;3.33;;;;;;;19.83;32.79;95940.56;5115230;28;20443;-79
2022/10/18 11:15:59;;;;;;;9.47;3.00;;;;;;;19.87;31.26;95940.09;5114489;28;20439;-78
2022/10/18 11:18:31;;;;;;;4.90;3.40;;;;;;;19.98;30.79;95941.63;5114635;28;20499;-80
2022/10/18 11:21:06;;;;;;;3.50;3.10;;;;;;;19.79;30.12;95922.25;5114355;28;20479;-79
2022/10/18 11:23:37;;;;;;;3.93;2.90;;;;;;;19.81;30.36;95930.09;5113515;28;20482;-79
2022/10/18 11:26:21;;;;;;;13.13;3.70;;;;;;;19.92;31.23;95919.13;5114520;28;20442;-79
2022/10/18 11:29:03;;;;;;;3.70;3.37;;;;;;;20.06;31.19;95917.66;5114304;28;20448;-80
2022/10/18 11:31:34;;;;;;;3.43;2.97;;;;;;;20.14;29.75;95915.00;5114100;28;20926;-78
2022/10/18 11:34:21;;;;;;;5.80;3.23;;;;;;;20.25;29.34;95904.06;5114431;28;20450;-80
2022/10/18 11:36:54;;;;;;;4.37;2.80;;;;;;;20.27;28.07;95903.88;5067944;28;20446;-81
2022/10/18 11:39:29;;;;;;;3.33;3.00;;;;;;;20.30;29.17;95893.72;5114310;28;20811;-80
2022/10/18 11:42:03;;;;;;;12.50;2.90;;;;;;;20.36;29.39;95882.41;5061789;28;20495;-78